Time;durP1;ratioP1;P1;durP2;ratioP2;P2;SDS_P1;SDS_P2;PMS_P1;PMS_P2;Temp;Humidity;BMP_temperature;BMP_pressure;BME280_temperature;BME280_humidity;BME280_pressure;Samples;Min_cycle;Max_cycle;Signal;HPM_P1;HPM_P2
2022/07/07 00:01:55;;;;;;;11.73;9.50;;;14.40;99.90;;;;;;4991236;28;20446;-52
2022/07/07 00:04:21;;;;;;;10.97;9.87;;;14.40;99.90;;;;;;4991752;28;20204;-52
2022/07/07 00:06:48;;;;;;;10.47;9.03;;;14.40;99.90;;;;;;4982657;28;20362;-53
2022/07/07 00:09:13;;;;;;;13.53;10.97;;;14.40;99.90;;;;;;4990481;28;20529;-52
2022/07/07 00:11:39;;;;;;;10.43;9.37;;;14.40;99.90;;;;;;4990979;28;20192;-52
2022/07/07 00:14:07;;;;;;;10.63;9.43;;;14.40;99.90;;;;;;4991304;28;20727;-52
2022/07/07 00:16:33;;;;;;;12.20;10.40;;;14.40;99.90;;;;;;4992254;28;20180;-53
2022/07/07 00:19:01;;;;;;;12.40;11.10;;;14.40;99.90;;;;;;4991009;28;20450;-53
2022/07/07 00:21:27;;;;;;;14.30;11.87;;;14.50;99.90;;;;;;4974606;28;20444;-53
2022/07/07 00:23:53;;;;;;;12.50;10.87;;;14.50;99.90;;;;;;4990353;28;20509;-52
2022/07/07 00:26:18;;;;;;;15.70;11.60;;;14.50;99.90;;;;;;4991550;28;20442;-52
2022/07/07 00:28:44;;;;;;;12.20;10.90;;;14.60;99.90;;;;;;4972457;28;20211;-53
2022/07/07 00:31:10;;;;;;;13.10;10.70;;;14.60;99.90;;;;;;4991366;28;20177;-53
2022/07/07 00:33:35;;;;;;;12.37;10.50;;;14.60;99.90;;;;;;4989441;28;20275;-52
2022/07/07 00:36:01;;;;;;;9.50;8.60;;;14.60;99.90;;;;;;4990260;28;20200;-53
2022/07/07 00:38:27;;;;;;;9.93;8.93;;;14.50;99.90;;;;;;4966053;28;20193;-52
2022/07/07 00:40:54;;;;;;;11.60;10.07;;;14.50;99.90;;;;;;4986251;28;20270;-53
2022/07/07 00:43:20;;;;;;;10.90;9.60;;;14.50;99.90;;;;;;4990516;28;20263;-53
2022/07/07 00:45:49;;;;;;;12.03;10.73;;;14.60;99.90;;;;;;4991236;28;20855;-53
2022/07/07 00:48:17;;;;;;;12.30;10.47;;;14.60;99.90;;;;;;4985978;28;20460;-53
2022/07/07 00:50:44;;;;;;;11.50;10.10;;;14.50;99.90;;;;;;4990591;28;20470;-52
2022/07/07 00:53:10;;;;;;;11.47;9.90;;;14.60;99.90;;;;;;4990042;28;21239;-52
2022/07/07 00:55:36;;;;;;;11.20;10.10;;;14.60;99.90;;;;;;4989890;28;20450;-53
2022/07/07 00:58:02;;;;;;;11.07;9.40;;;14.60;99.90;;;;;;4989832;28;20203;-52
2022/07/07 01:00:27;;;;;;;12.03;10.20;;;14.60;99.90;;;;;;4962362;28;20220;-53
2022/07/07 01:02:53;;;;;;;10.80;9.70;;;14.60;99.90;;;;;;4990395;28;20984;-52
2022/07/07 01:05:19;;;;;;;10.53;9.43;;;14.70;99.90;;;;;;4990116;28;20211;-52
2022/07/07 01:07:45;;;;;;;9.13;8.20;;;14.70;99.90;;;;;;4989099;28;20222;-53
2022/07/07 01:10:11;;;;;;;11.13;9.83;;;14.70;99.90;;;;;;4989829;28;20184;-53
2022/07/07 01:12:40;;;;;;;11.83;10.60;;;14.70;99.90;;;;;;4988771;28;20810;-52
2022/07/07 01:15:09;;;;;;;12.27;10.53;;;14.70;99.90;;;;;;4973724;28;20313;-52
2022/07/07 01:17:35;;;;;;;11.97;10.67;;;14.70;99.90;;;;;;4985606;28;20443;-52
2022/07/07 01:20:03;;;;;;;12.00;9.50;;;14.80;99.90;;;;;;4991128;28;20808;-52
2022/07/07 01:22:31;;;;;;;13.10;10.47;;;14.70;99.90;;;;;;4987912;28;20465;-53
2022/07/07 01:24:58;;;;;;;12.50;9.90;;;14.70;99.90;;;;;;4989523;28;20517;-52
2022/07/07 01:27:24;;;;;;;11.67;9.70;;;14.70;99.90;;;;;;4989962;28;20446;-52
2022/07/07 01:29:51;;;;;;;10.20;8.53;;;14.70;99.90;;;;;;4980722;28;20436;-52
2022/07/07 01:32:18;;;;;;;12.07;10.23;;;14.80;99.90;;;;;;4991154;28;20403;-52
2022/07/07 01:34:46;;;;;;;12.97;11.40;;;14.80;99.90;;;;;;4989215;28;20576;-52
2022/07/07 01:37:11;;;;;;;12.90;10.60;;;14.80;99.90;;;;;;4989255;28;20454;-52
2022/07/07 01:39:39;;;;;;;13.30;11.13;;;14.80;99.90;;;;;;4988880;28;20443;-52
2022/07/07 01:42:05;;;;;;;15.00;11.87;;;14.80;99.90;;;;;;4973384;28;20185;-52
2022/07/07 01:44:32;;;;;;;14.73;12.20;;;14.80;99.90;;;;;;4988657;28;21342;-52
2022/07/07 01:46:57;;;;;;;14.83;12.00;;;14.80;99.90;;;;;;4989824;28;20451;-52
2022/07/07 01:49:24;;;;;;;15.20;12.00;;;14.80;99.90;;;;;;4989613;28;20451;-52
2022/07/07 01:51:50;;;;;;;15.67;12.40;;;14.90;99.90;;;;;;4990324;28;20169;-52
2022/07/07 01:54:15;;;;;;;13.70;12.30;;;14.90;99.90;;;;;;4986029;28;20530;-52
2022/07/07 01:56:41;;;;;;;18.93;12.80;;;15.00;99.90;;;;;;4971133;28;20182;-52
2022/07/07 01:59:07;;;;;;;17.00;13.63;;;15.00;99.90;;;;;;4986375;28;20199;-52
2022/07/07 02:01:32;;;;;;;17.00;13.40;;;15.00;99.90;;;;;;4989711;28;20720;-52
2022/07/07 02:03:58;;;;;;;20.20;13.77;;;15.00;99.90;;;;;;4990072;28;20204;-52
2022/07/07 02:06:24;;;;;;;16.13;13.23;;;15.00;99.90;;;;;;4988956;28;20254;-52
2022/07/07 02:08:49;;;;;;;18.30;13.83;;;15.00;99.90;;;;;;4990281;28;20603;-52
2022/07/07 02:11:16;;;;;;;15.30;12.60;;;15.00;99.90;;;;;;4978108;28;20446;-52
2022/07/07 02:13:50;;;;;;;16.50;12.97;;;15.10;99.90;;;;;;4989776;28;20192;-52
2022/07/07 02:16:18;;;;;;;15.03;12.13;;;15.10;99.90;;;;;;4989404;28;20477;-53
2022/07/07 02:18:45;;;;;;;17.03;13.77;;;15.10;99.90;;;;;;4987299;28;20436;-52
2022/07/07 02:21:13;;;;;;;16.90;13.07;;;15.10;99.90;;;;;;4976216;28;20439;-52
2022/07/07 02:23:41;;;;;;;18.60;13.97;;;15.20;99.90;;;;;;4990729;28;20516;-52
2022/07/07 02:26:07;;;;;;;18.87;15.07;;;15.20;99.90;;;;;;4991865;28;20442;-52
2022/07/07 02:28:33;;;;;;;20.20;14.90;;;15.20;99.90;;;;;;4993843;28;20494;-52
2022/07/07 02:30:59;;;;;;;20.13;15.43;;;15.20;99.90;;;;;;4992314;28;20216;-52
2022/07/07 02:33:26;;;;;;;22.80;16.57;;;15.20;99.90;;;;;;4993885;28;20548;-52
2022/07/07 02:35:52;;;;;;;24.20;15.80;;;15.20;99.90;;;;;;4992196;28;20447;-52
2022/07/07 02:38:18;;;;;;;25.63;16.17;;;15.30;99.90;;;;;;4992560;28;20447;-52
2022/07/07 02:40:43;;;;;;;21.40;16.43;;;15.30;99.90;;;;;;4991986;28;20446;-52
2022/07/07 02:43:15;;;;;;;22.30;15.40;;;15.30;99.90;;;;;;4992352;28;20567;-53
2022/07/07 02:45:46;;;;;;;24.90;17.07;;;15.30;99.90;;;;;;4974937;28;20599;-52
2022/07/07 02:48:14;;;;;;;21.77;16.20;;;15.30;99.90;;;;;;4993010;28;20442;-52
2022/07/07 02:50:40;;;;;;;24.00;17.53;;;15.30;99.90;;;;;;4993546;28;20411;-52
2022/07/07 02:53:07;;;;;;;25.10;17.40;;;15.30;99.90;;;;;;4992184;28;20957;-52
2022/07/07 02:55:33;;;;;;;37.67;18.03;;;15.30;99.90;;;;;;4979990;28;20911;-52
2022/07/07 02:58:00;;;;;;;25.50;18.53;;;15.40;99.90;;;;;;4992936;28;20427;-52
2022/07/07 03:00:27;;;;;;;22.90;17.47;;;15.40;99.90;;;;;;4991822;28;20885;-52
2022/07/07 03:02:54;;;;;;;20.67;16.73;;;15.40;99.90;;;;;;4991617;28;20999;-52
2022/07/07 03:05:24;;;;;;;28.50;17.43;;;15.40;99.90;;;;;;4991857;28;20477;-52
2022/07/07 03:07:49;;;;;;;23.27;18.23;;;15.40;99.90;;;;;;4992569;28;20427;-52
2022/07/07 03:10:15;;;;;;;23.53;17.53;;;15.40;99.90;;;;;;4981855;28;20949;-55
2022/07/07 03:12:42;;;;;;;29.50;19.97;;;15.40;99.90;;;;;;4992075;28;20531;-52
2022/07/07 03:15:08;;;;;;;23.83;18.30;;;15.40;99.90;;;;;;4993004;28;20415;-52
2022/07/07 03:17:35;;;;;;;26.53;20.03;;;15.30;99.90;;;;;;4974189;28;20432;-52
2022/07/07 03:20:01;;;;;;;28.43;20.00;;;15.40;99.90;;;;;;4989448;28;20921;-52
2022/07/07 03:22:27;;;;;;;24.77;19.03;;;15.40;99.90;;;;;;4992284;28;20946;-52
2022/07/07 03:24:52;;;;;;;29.87;19.80;;;15.40;99.90;;;;;;4972938;28;20479;-58
2022/07/07 03:27:18;;;;;;;26.00;19.90;;;15.40;99.90;;;;;;4991946;28;20295;-52
2022/07/07 03:29:44;;;;;;;28.23;19.83;;;15.50;99.90;;;;;;4992058;28;20189;-52
2022/07/07 03:32:09;;;;;;;27.70;20.20;;;15.40;99.90;;;;;;4992573;28;20541;-52
2022/07/07 03:34:35;;;;;;;25.07;18.77;;;15.50;99.90;;;;;;4986729;28;20803;-52
2022/07/07 03:37:01;;;;;;;26.20;18.87;;;15.40;99.90;;;;;;4974783;28;20196;-52
2022/07/07 03:39:27;;;;;;;27.20;19.67;;;15.50;99.90;;;;;;4990751;28;20351;-52
2022/07/07 03:41:53;;;;;;;23.57;17.37;;;15.50;99.90;;;;;;4991825;28;20554;-52
2022/07/07 03:44:18;;;;;;;22.53;16.80;;;15.50;99.90;;;;;;4979875;28;20217;-52
2022/07/07 03:46:44;;;;;;;26.17;16.00;;;15.50;99.90;;;;;;4981908;28;20198;-52
2022/07/07 03:49:10;;;;;;;24.03;17.20;;;15.50;99.90;;;;;;4975030;28;20511;-52
2022/07/07 03:51:36;;;;;;;23.73;16.47;;;15.50;99.90;;;;;;4990997;28;20458;-52
2022/07/07 03:54:02;;;;;;;19.97;15.53;;;15.50;99.90;;;;;;4991978;28;20471;-52
2022/07/07 03:56:28;;;;;;;22.00;16.80;;;15.50;99.90;;;;;;4990428;28;20549;-52
2022/07/07 03:58:53;;;;;;;21.83;16.27;;;15.50;99.90;;;;;;4990798;28;20467;-52
2022/07/07 04:01:19;;;;;;;25.17;16.30;;;15.50;99.90;;;;;;4990124;28;20200;-52
2022/07/07 04:03:45;;;;;;;22.97;16.60;;;15.50;99.90;;;;;;4992147;28;20204;-52
2022/07/07 04:06:11;;;;;;;24.23;15.27;;;15.50;99.90;;;;;;4991274;28;20227;-52
2022/07/07 04:08:36;;;;;;;21.33;15.77;;;15.60;99.90;;;;;;4991327;28;20684;-52
2022/07/07 04:11:02;;;;;;;15.90;12.37;;;15.50;99.90;;;;;;4990350;28;20251;-52
2022/07/07 04:13:28;;;;;;;17.27;13.40;;;15.50;99.90;;;;;;4991969;28;20204;-52
2022/07/07 04:15:55;;;;;;;15.47;13.47;;;15.50;99.90;;;;;;4990434;28;20611;-52
2022/07/07 04:18:21;;;;;;;15.63;13.13;;;15.50;99.90;;;;;;4987831;28;20211;-52
2022/07/07 04:20:47;;;;;;;19.97;13.40;;;15.60;99.90;;;;;;4991733;28;20531;-53
2022/07/07 04:23:12;;;;;;;16.77;12.23;;;15.50;99.90;;;;;;4990983;28;20196;-52
2022/07/07 04:25:38;;;;;;;17.37;12.60;;;15.50;99.90;;;;;;4990452;28;20235;-53
2022/07/07 04:28:04;;;;;;;14.47;11.30;;;15.50;99.90;;;;;;4991547;28;20191;-52
2022/07/07 04:30:29;;;;;;;14.70;12.50;;;15.50;99.90;;;;;;4973172;28;20649;-52
2022/07/07 04:32:55;;;;;;;14.00;11.90;;;15.50;99.90;;;;;;4991665;28;20164;-52
2022/07/07 04:35:20;;;;;;;15.00;12.00;;;15.50;99.90;;;;;;4990561;28;20543;-55
2022/07/07 04:37:46;;;;;;;15.70;11.87;;;15.50;99.90;;;;;;4989780;28;20188;-54
2022/07/07 04:40:12;;;;;;;16.30;11.90;;;15.50;99.90;;;;;;4990091;28;20717;-52
2022/07/07 04:42:38;;;;;;;17.03;11.50;;;15.40;99.90;;;;;;4989885;28;20185;-52
2022/07/07 04:45:04;;;;;;;14.10;11.77;;;15.50;99.90;;;;;;4991218;28;20220;-52
2022/07/07 04:47:29;;;;;;;16.10;12.00;;;15.50;99.90;;;;;;4989323;28;20207;-52
2022/07/07 04:49:55;;;;;;;18.47;12.30;;;15.50;99.90;;;;;;4991471;28;20415;-52
2022/07/07 04:52:21;;;;;;;16.73;11.10;;;15.50;99.90;;;;;;4988908;28;20879;-52
2022/07/07 04:54:46;;;;;;;13.13;10.20;;;15.50;99.90;;;;;;4991004;28;20255;-52
2022/07/07 04:57:12;;;;;;;11.07;7.90;;;15.60;99.90;;;;;;4989521;28;20192;-52
2022/07/07 04:59:38;;;;;;;9.87;8.20;;;15.60;99.90;;;;;;4991144;28;20263;-52
2022/07/07 05:02:04;;;;;;;9.10;7.80;;;15.60;99.90;;;;;;4989914;28;20255;-52
2022/07/07 05:04:29;;;;;;;8.03;7.23;;;15.50;99.90;;;;;;4990974;28;20200;-52
2022/07/07 05:06:55;;;;;;;6.20;4.63;;;15.60;99.90;;;;;;4990294;28;20192;-52
2022/07/07 05:09:20;;;;;;;5.67;4.70;;;15.60;99.90;;;;;;4989286;28;20279;-52
2022/07/07 05:11:46;;;;;;;5.80;4.57;;;15.60;99.90;;;;;;4989694;28;20254;-52
2022/07/07 05:14:11;;;;;;;4.40;4.00;;;15.70;99.90;;;;;;4990132;28;20183;-53
2022/07/07 05:16:37;;;;;;;4.50;4.10;;;15.70;99.90;;;;;;4989753;28;20223;-52
2022/07/07 05:19:03;;;;;;;3.83;3.53;;;15.70;99.90;;;;;;4989397;28;20188;-52
2022/07/07 05:21:29;;;;;;;3.70;3.40;;;15.80;99.90;;;;;;4989142;28;20200;-52
2022/07/07 05:23:54;;;;;;;3.27;2.93;;;15.80;99.90;;;;;;4989987;28;20215;-52
2022/07/07 05:26:20;;;;;;;2.80;2.60;;;15.80;99.90;;;;;;4990997;28;20235;-52
2022/07/07 05:28:46;;;;;;;3.43;2.40;;;15.80;99.90;;;;;;4989695;28;20188;-52
2022/07/07 05:31:14;;;;;;;2.30;2.10;;;15.80;99.90;;;;;;4990228;28;20192;-52
2022/07/07 05:33:41;;;;;;;2.53;2.33;;;15.90;99.90;;;;;;4989209;28;21146;-52
2022/07/07 05:36:07;;;;;;;3.17;2.23;;;15.90;99.90;;;;;;4989709;28;20447;-52
2022/07/07 05:38:34;;;;;;;2.67;2.50;;;16.00;99.90;;;;;;4989161;28;20443;-52
2022/07/07 05:41:00;;;;;;;2.40;2.17;;;15.90;99.90;;;;;;4991231;28;20407;-52
2022/07/07 05:43:26;;;;;;;4.23;2.30;;;16.00;99.90;;;;;;4988836;28;20561;-52
2022/07/07 05:45:52;;;;;;;2.60;1.90;;;16.00;99.90;;;;;;4972949;28;20543;-52
2022/07/07 05:48:18;;;;;;;2.40;2.20;;;16.00;99.90;;;;;;4988334;28;20192;-53
2022/07/07 05:50:43;;;;;;;3.57;2.30;;;16.10;99.90;;;;;;4989997;28;20980;-52
2022/07/07 05:53:09;;;;;;;2.80;2.60;;;16.10;99.90;;;;;;4991158;28;21097;-52
2022/07/07 05:55:35;;;;;;;2.03;1.83;;;16.20;99.90;;;;;;4984166;28;20200;-52
2022/07/07 05:58:01;;;;;;;2.20;2.00;;;16.40;99.90;;;;;;4988819;28;20622;-53
2022/07/07 06:00:27;;;;;;;2.00;1.80;;;16.50;99.90;;;;;;4992036;28;20933;-52
2022/07/07 06:02:53;;;;;;;2.80;2.07;;;16.60;99.90;;;;;;4978651;28;20192;-52
2022/07/07 06:05:19;;;;;;;2.40;1.70;;;16.60;99.90;;;;;;4990127;28;20477;-52
2022/07/07 06:07:44;;;;;;;4.17;1.93;;;16.60;99.90;;;;;;4994271;28;20184;-52
2022/07/07 06:10:11;;;;;;;3.60;2.00;;;16.60;99.90;;;;;;4990002;28;20216;-52
2022/07/07 06:12:41;;;;;;;1.90;1.77;;;16.70;99.90;;;;;;4991050;28;20267;-52
2022/07/07 06:15:08;;;;;;;2.20;2.03;;;16.70;99.90;;;;;;4975662;28;20486;-52
2022/07/07 06:17:34;;;;;;;2.90;1.93;;;16.70;99.90;;;;;;4975019;28;20441;-52
2022/07/07 06:19:59;;;;;;;2.60;2.07;;;16.70;99.90;;;;;;4979172;28;20446;-52
2022/07/07 06:22:26;;;;;;;3.20;1.93;;;16.70;99.90;;;;;;4992551;28;20471;-52
2022/07/07 06:24:52;;;;;;;4.17;2.27;;;16.80;99.90;;;;;;4982576;28;20212;-52
2022/07/07 06:27:18;;;;;;;2.23;1.97;;;16.90;99.90;;;;;;4984368;28;20425;-52
2022/07/07 06:29:44;;;;;;;2.40;2.20;;;17.00;99.90;;;;;;4981470;28;20480;-52
2022/07/07 06:32:10;;;;;;;4.00;2.07;;;17.00;99.90;;;;;;4992181;28;20454;-52
2022/07/07 06:34:36;;;;;;;2.37;2.17;;;17.00;99.90;;;;;;4993009;28;20451;-52
2022/07/07 06:37:02;;;;;;;2.80;2.40;;;17.10;99.90;;;;;;4991922;28;20450;-52
2022/07/07 06:39:28;;;;;;;4.63;2.53;;;17.10;99.90;;;;;;4990117;28;20443;-52
2022/07/07 06:41:54;;;;;;;9.03;2.57;;;17.00;99.90;;;;;;4993048;28;20517;-53
2022/07/07 06:44:19;;;;;;;2.47;2.27;;;17.00;99.90;;;;;;4993989;28;20259;-52
2022/07/07 06:46:45;;;;;;;7.00;2.57;;;17.00;99.90;;;;;;4993606;28;20180;-52
2022/07/07 06:49:12;;;;;;;2.50;2.30;;;17.00;99.90;;;;;;4993221;28;20658;-53
2022/07/07 06:51:38;;;;;;;10.40;2.63;;;17.00;99.90;;;;;;4993921;28;20255;-52
2022/07/07 06:54:04;;;;;;;3.57;2.57;;;17.10;99.90;;;;;;4993281;28;20570;-52
2022/07/07 06:56:29;;;;;;;3.00;2.53;;;17.10;99.90;;;;;;4993620;28;20192;-52
2022/07/07 06:58:55;;;;;;;4.83;2.70;;;17.00;99.90;;;;;;4993349;28;20176;-52
2022/07/07 07:01:20;;;;;;;2.93;2.57;;;17.00;99.90;;;;;;4993281;28;20271;-52
2022/07/07 07:03:46;;;;;;;7.80;2.97;;;17.00;99.90;;;;;;4993406;28;20584;-52
2022/07/07 07:06:12;;;;;;;3.93;3.47;;;17.00;99.90;;;;;;4993382;28;20582;-52
2022/07/07 07:08:37;;;;;;;4.57;2.90;;;17.00;99.90;;;;;;4993441;28;20188;-52
2022/07/07 07:11:03;;;;;;;5.00;3.20;;;17.10;99.90;;;;;;4992222;28;20260;-52
2022/07/07 07:13:30;;;;;;;4.03;2.90;;;17.20;99.90;;;;;;4993388;28;20661;-52
2022/07/07 07:15:56;;;;;;;5.10;2.93;;;17.30;99.90;;;;;;4993270;28;20428;-52
2022/07/07 07:18:21;;;;;;;7.73;3.20;;;17.40;99.90;;;;;;4993395;28;21060;-52
2022/07/07 07:20:47;;;;;;;6.20;3.60;;;17.40;99.90;;;;;;4993313;28;20537;-52
2022/07/07 07:23:13;;;;;;;7.57;3.77;;;17.70;99.90;;;;;;4992841;28;20242;-52
2022/07/07 07:25:38;;;;;;;5.70;3.30;;;18.20;99.90;;;;;;4992910;28;20177;-52
2022/07/07 07:28:04;;;;;;;8.83;3.37;;;18.60;99.90;;;;;;4993117;28;20184;-52
2022/07/07 07:30:31;;;;;;;6.67;2.70;;;19.30;99.90;;;;;;4993054;28;20215;-52
2022/07/07 07:32:57;;;;;;;9.60;2.60;;;19.90;99.90;;;;;;4993118;28;20614;-52
2022/07/07 07:35:22;;;;;;;6.13;2.33;;;20.20;99.90;;;;;;4993046;28;20496;-53
2022/07/07 07:37:48;;;;;;;5.03;2.57;;;20.00;99.90;;;;;;4974928;28;20212;-52
2022/07/07 07:40:14;;;;;;;6.43;2.50;;;19.90;1.00;;;;;;4992400;28;20180;-52
2022/07/07 07:42:40;;;;;;;4.50;2.63;;;19.80;96.30;;;;;;4992552;28;20210;-52
2022/07/07 07:45:09;;;;;;;7.00;3.30;;;19.50;1.00;;;;;;4992428;28;20943;-52
2022/07/07 07:47:35;;;;;;;10.63;2.97;;;19.30;1.00;;;;;;4992941;28;20168;-52
2022/07/07 07:50:01;;;;;;;3.67;2.10;;;19.00;1.00;;;;;;4992400;28;20459;-53
2022/07/07 07:52:26;;;;;;;3.23;2.10;;;18.50;1.00;;;;;;4992653;28;20466;-52
2022/07/07 07:54:52;;;;;;;4.67;2.50;;;18.10;1.00;;;;;;4992181;28;20247;-52
2022/07/07 07:57:19;;;;;;;7.77;2.37;;;17.70;55.90;;;;;;4992366;28;20188;-52
2022/07/07 07:59:44;;;;;;;4.07;2.10;;;17.50;99.90;;;;;;4992446;28;20459;-52
2022/07/07 08:02:10;;;;;;;4.27;2.50;;;17.30;99.90;;;;;;4991996;28;20937;-52
2022/07/07 08:04:35;;;;;;;6.10;2.23;;;17.20;1.00;;;;;;4992317;28;20594;-52
2022/07/07 08:07:01;;;;;;;4.63;2.27;;;17.10;1.00;;;;;;4992156;28;20187;-52
2022/07/07 08:09:27;;;;;;;6.73;2.30;;;17.10;99.90;;;;;;4992187;28;20268;-52
2022/07/07 08:11:53;;;;;;;8.53;2.83;;;17.00;99.90;;;;;;4992100;28;20263;-52
2022/07/07 08:14:18;;;;;;;8.00;2.80;;;17.20;99.90;;;;;;4992120;28;20231;-52
2022/07/07 08:16:44;;;;;;;5.20;3.00;;;17.50;99.90;;;;;;4992180;28;20439;-52
2022/07/07 08:19:10;;;;;;;4.93;2.80;;;17.70;99.90;;;;;;4992149;28;20291;-52
2022/07/07 08:21:36;;;;;;;9.27;2.90;;;17.90;1.00;;;;;;4991897;28;20678;-53
2022/07/07 08:24:01;;;;;;;9.10;3.50;;;17.90;99.90;;;;;;4991618;28;20536;-52
2022/07/07 08:26:27;;;;;;;6.33;2.90;;;17.90;99.90;;;;;;4991852;28;20870;-53
2022/07/07 08:28:53;;;;;;;10.40;3.50;;;18.00;99.90;;;;;;4991582;28;20173;-53
2022/07/07 08:31:18;;;;;;;4.37;3.00;;;18.40;99.90;;;;;;4991674;28;20184;-52
2022/07/07 08:33:44;;;;;;;10.93;4.17;;;19.00;80.50;;;;;;4991891;28;20511;-52
2022/07/07 08:36:09;;;;;;;5.77;2.70;;;19.50;1.00;;;;;;4991717;28;20171;-52
2022/07/07 08:38:35;;;;;;;8.00;2.47;;;19.80;1.00;;;;;;4991358;28;20188;-52
2022/07/07 08:41:01;;;;;;;4.93;2.97;;;19.80;99.90;;;;;;4991306;28;20173;-52
2022/07/07 08:43:27;;;;;;;5.43;2.70;;;19.80;1.00;;;;;;4991386;28;20204;-52
2022/07/07 08:45:54;;;;;;;6.40;3.10;;;19.90;1.00;;;;;;4991455;28;20215;-52
2022/07/07 08:48:20;;;;;;;14.77;2.97;;;20.30;99.90;;;;;;4992195;28;20403;-53
2022/07/07 08:50:46;;;;;;;5.87;2.60;;;20.30;99.90;;;;;;4991200;28;20506;-53
2022/07/07 08:53:13;;;;;;;3.77;2.27;;;20.20;99.90;;;;;;4990836;28;20479;-51
2022/07/07 08:55:41;;;;;;;6.33;2.93;;;20.00;99.90;;;;;;4991235;28;20247;-51
2022/07/07 08:58:09;;;;;;;7.03;2.50;;;20.00;99.90;;;;;;4991336;28;20499;-51
2022/07/07 09:00:34;;;;;;;7.00;2.90;;;20.30;99.90;;;;;;4991408;28;20454;-51
2022/07/07 09:03:03;;;;;;;4.80;2.07;;;20.50;99.90;;;;;;4991252;28;20805;-51
2022/07/07 09:05:37;;;;;;;8.97;2.40;;;20.80;99.90;;;;;;4991080;28;20204;-51
2022/07/07 09:08:25;;;;;;;5.93;2.03;;;21.00;99.90;;;;;;4991070;28;20400;-51
2022/07/07 09:10:52;;;;;;;7.03;2.17;;;21.30;99.90;;;;;;4991105;28;20503;-51
2022/07/07 09:13:29;;;;;;;3.30;1.70;;;21.20;99.90;;;;;;4991039;28;20408;-51
2022/07/07 09:16:04;;;;;;;7.73;1.97;;;20.80;99.90;;;;;;4990996;28;20889;-51
2022/07/07 09:18:41;;;;;;;4.57;1.80;;;20.30;99.90;;;;;;4990783;28;20750;-51
2022/07/07 09:21:25;;;;;;;4.30;1.80;;;19.80;99.90;;;;;;4990960;28;20411;-51
2022/07/07 09:23:59;;;;;;;4.10;2.13;;;19.20;99.90;;;;;;4990762;28;20447;-51
2022/07/07 09:26:35;;;;;;;3.90;1.87;;;18.90;99.90;;;;;;4991011;28;20410;-51
2022/07/07 09:29:00;;;;;;;4.83;1.90;;;18.60;99.90;;;;;;4990713;28;20505;-53
2022/07/07 09:31:46;;;;;;;3.63;2.00;;;18.50;99.90;;;;;;4990986;28;20499;-51
2022/07/07 09:34:12;;;;;;;5.67;2.50;;;18.60;99.90;;;;;;4993048;28;20198;-51
2022/07/07 09:39:22;;;;;;;9.27;2.20;;;19.00;99.90;;;;;;4994811;28;20470;-51
2022/07/07 09:41:48;;;;;;;5.90;1.80;;;19.40;99.90;;;;;;4994749;28;20459;-52
2022/07/07 09:44:13;;;;;;;4.87;2.27;;;19.60;99.90;;;;;;4994955;28;20386;-52
2022/07/07 09:46:39;;;;;;;11.20;1.97;;;19.70;99.90;;;;;;4994871;28;20180;-51
2022/07/07 09:49:10;;;;;;;4.83;2.03;;;19.60;99.90;;;;;;4994848;28;20211;-51
2022/07/07 09:51:35;;;;;;;6.70;2.07;;;19.70;99.90;;;;;;4994780;28;20623;-51
2022/07/07 09:54:05;;;;;;;2.13;1.90;;;19.60;99.90;;;;;;4994578;28;20540;-51
2022/07/07 09:56:43;;;;;;;4.27;1.80;;;19.40;99.90;;;;;;4994533;28;20197;-51
2022/07/07 09:59:17;;;;;;;4.10;3.00;;;19.30;99.90;;;;;;4994331;28;20458;-51
2022/07/07 10:01:45;;;;;;;4.17;2.80;;;19.20;99.90;;;;;;4994827;28;20399;-51
2022/07/07 10:04:13;;;;;;;7.27;3.07;;;19.10;99.90;;;;;;4994459;28;21325;-51
2022/07/07 10:06:41;;;;;;;4.83;2.23;;;19.20;99.90;;;;;;4994586;28;21086;-51
2022/07/07 10:09:15;;;;;;;4.17;2.50;;;19.40;99.90;;;;;;4994280;28;20407;-51
2022/07/07 10:11:49;;;;;;;6.70;3.00;;;19.90;99.90;;;;;;4994357;28;20503;-52
2022/07/07 10:14:33;;;;;;;2.03;1.80;;;20.30;99.90;;;;;;4994299;28;20426;-51
2022/07/07 10:17:01;;;;;;;6.57;2.90;;;20.20;99.90;;;;;;4994093;28;20415;-51
2022/07/07 10:19:27;;;;;;;6.70;2.10;;;20.00;99.90;;;;;;4994156;28;20502;-53
2022/07/07 10:21:55;;;;;;;4.70;2.33;;;19.70;99.90;;;;;;4994041;28;20961;-52
2022/07/07 10:24:32;;;;;;;8.47;2.40;;;19.20;99.90;;;;;;4976495;28;20479;-51
2022/07/07 10:26:59;;;;;;;4.87;2.23;;;18.90;99.90;;;;;;4994305;28;20407;-51
2022/07/07 10:29:44;;;;;;;5.57;1.90;;;18.80;99.90;;;;;;4994156;28;20404;-51
2022/07/07 10:32:29;;;;;;;4.60;2.40;;;18.90;99.90;;;;;;4994187;28;20416;-51
2022/07/07 10:34:58;;;;;;;3.83;2.13;;;19.20;99.90;;;;;;4994196;28;20470;-51
2022/07/07 10:37:25;;;;;;;3.50;1.60;;;19.50;99.90;;;;;;4993956;28;20408;-51
2022/07/07 10:39:56;;;;;;;6.73;1.80;;;20.30;99.90;;;;;;4993761;28;20493;-51
2022/07/07 10:42:39;;;;;;;4.23;1.90;;;21.10;99.90;;;;;;4993727;28;20424;-52
2022/07/07 10:45:08;;;;;;;6.80;1.50;;;21.70;99.90;;;;;;4992413;28;21008;-51
2022/07/07 10:47:35;;;;;;;6.70;1.87;;;22.30;99.90;;;;;;4993969;28;20498;-52
2022/07/07 10:50:01;;;;;;;2.20;1.50;;;22.70;99.90;;;;;;4993827;28;20400;-52
2022/07/07 10:52:41;;;;;;;6.73;1.97;;;22.80;99.90;;;;;;4993721;28;20474;-52
2022/07/07 10:55:08;;;;;;;4.93;1.90;;;22.70;99.90;;;;;;4993105;28;20474;-51
2022/07/07 10:57:59;;;;;;;3.80;1.80;;;22.40;99.90;;;;;;4993477;28;20795;-52
2022/07/07 11:00:28;;;;;;;8.43;1.87;;;22.40;99.90;;;;;;4990591;28;20440;-51
2022/07/07 11:03:06;;;;;;;4.80;1.80;;;22.50;99.90;;;;;;4993712;28;20498;-52
2022/07/07 11:05:33;;;;;;;4.70;1.87;;;22.40;99.90;;;;;;4993168;28;20467;-51
2022/07/07 11:07:59;;;;;;;4.70;2.10;;;21.80;99.90;;;;;;4993170;28;20404;-51
2022/07/07 11:10:37;;;;;;;8.87;1.83;;;21.40;99.90;;;;;;4993267;28;20406;-51
2022/07/07 11:13:16;;;;;;;6.67;2.40;;;20.90;99.90;;;;;;4993305;28;20634;-51
2022/07/07 11:15:44;;;;;;;3.47;1.80;;;21.00;99.90;;;;;;4993108;28;20757;-54
2022/07/07 11:18:13;;;;;;;2.63;1.30;;;22.00;99.90;;;;;;4993371;28;20412;-51
2022/07/07 11:20:59;;;;;;;9.40;1.47;;;22.70;99.90;;;;;;4992892;28;20419;-51
2022/07/07 11:23:42;;;;;;;4.10;1.57;;;22.50;99.90;;;;;;4992965;28;20750;-51
2022/07/07 11:26:08;;;;;;;3.30;1.20;;;22.30;99.90;;;;;;4993054;28;20388;-51
2022/07/07 11:28:35;;;;;;;4.20;1.70;;;21.90;99.90;;;;;;4992742;28;20514;-51
2022/07/07 11:31:04;;;;;;;5.10;1.57;;;21.10;99.90;;;;;;4992737;28;20408;-51
2022/07/07 11:33:30;;;;;;;2.67;1.37;;;20.60;99.90;;;;;;4992839;28;20893;-51
2022/07/07 11:35:56;;;;;;;2.20;1.33;;;20.20;99.90;;;;;;4992738;28;20503;-51
2022/07/07 11:38:31;;;;;;;1.60;1.27;;;19.60;99.90;;;;;;4992457;28;20188;-51
2022/07/07 11:40:57;;;;;;;1.53;1.13;;;19.10;99.90;;;;;;4992906;28;20538;-51
2022/07/07 11:43:24;;;;;;;2.47;1.40;;;19.20;99.90;;;;;;4992658;28;20404;-53
2022/07/07 11:45:50;;;;;;;2.90;1.40;;;19.50;99.90;;;;;;4992608;28;20177;-52
2022/07/07 11:48:15;;;;;;;2.30;1.20;;;20.70;99.90;;;;;;4993065;28;20412;-52
2022/07/07 11:50:41;;;;;;;2.20;1.20;;;21.80;99.90;;;;;;4992285;28;20187;-52
2022/07/07 11:53:07;;;;;;;2.60;1.20;;;22.40;99.90;;;;;;4992323;28;20259;-52
2022/07/07 11:55:33;;;;;;;2.80;1.20;;;22.30;99.90;;;;;;4992347;28;20192;-52
2022/07/07 11:58:00;;;;;;;2.70;1.30;;;21.60;99.90;;;;;;4992174;28;20180;-52
2022/07/07 12:00:32;;;;;;;2.40;1.20;;;20.80;99.90;;;;;;4992288;28;20423;-52
2022/07/07 12:03:00;;;;;;;4.40;1.67;;;20.20;99.90;;;;;;4992076;28;20416;-52
2022/07/07 12:05:27;;;;;;;4.73;1.70;;;19.90;99.90;;;;;;4992253;28;20558;-52
2022/07/07 12:07:54;;;;;;;5.93;1.80;;;19.50;99.90;;;;;;4992124;28;20467;-52
2022/07/07 12:10:25;;;;;;;3.13;1.70;;;19.00;99.90;;;;;;4992295;28;21052;-52
2022/07/07 12:13:04;;;;;;;2.80;1.83;;;18.60;99.90;;;;;;4992409;28;20853;-52
2022/07/07 12:15:34;;;;;;;4.17;2.47;;;18.50;99.90;;;;;;4992169;28;20419;-52
2022/07/07 12:18:01;;;;;;;3.10;2.00;;;18.40;99.90;;;;;;4991826;28;20893;-52
2022/07/07 12:20:28;;;;;;;3.97;2.30;;;18.20;99.90;;;;;;4992085;28;20936;-53
2022/07/07 12:22:56;;;;;;;4.43;2.07;;;17.90;99.90;;;;;;4992016;28;20944;-52
2022/07/07 12:25:27;;;;;;;11.97;2.93;;;17.80;99.90;;;;;;4991889;28;20459;-52
2022/07/07 12:28:05;;;;;;;11.17;2.53;;;18.20;99.90;;;;;;4991640;28;20443;-52
2022/07/07 12:30:33;;;;;;;11.93;2.50;;;19.20;99.90;;;;;;4992047;28;20894;-52
2022/07/07 12:32:59;;;;;;;6.20;2.13;;;20.50;99.90;;;;;;4991604;28;20399;-52
2022/07/07 12:35:32;;;;;;;7.90;2.63;;;20.80;99.90;;;;;;4991584;28;20431;-56
2022/07/07 12:38:00;;;;;;;10.20;2.90;;;20.50;99.90;;;;;;4991536;28;20870;-53
2022/07/07 12:40:27;;;;;;;8.37;2.70;;;19.80;99.90;;;;;;4991609;28;20442;-52
2022/07/07 12:42:53;;;;;;;8.13;2.60;;;19.10;99.90;;;;;;4991401;28;20855;-52
2022/07/07 12:45:19;;;;;;;5.33;2.80;;;18.60;99.90;;;;;;4991479;28;20495;-52